Readyville, Tennessee
Current Conditions -  °F | °C
As of 2:53 AM on Friday 28 Nov 2014 (Local Time) from KBNA Reporting Station
Broken Clouds Broken Clouds  
Wind Chill: 25°   Ceiling: 14000
Heat Index: 25°   Visibility: 9mi
Dew Point: 21°   Wind: 0mph
Humidity: 85%   Direction: NA
Pressure: 30.45"   Gusts: NA
Location:  35.83°N, 86.17°W
Report Text: KBNA 280853Z 00000KT 9SM BKN140 M04/M06 A3045 RMK AO2 SLP317 T10391061 56002
Loading
Personal Weather Stations






























Interactive Weather Map New forecast layout! Learn more

10-Day Weather Forecast

Advertisements
Track Severe Weather on mobile